This is the latest recevied weather packets stored in our database for station/object HF6UWU. If no packets are shown the sender has not sent any weather packets the latest 10 day(s).
| Time | Temp. | Humidity | Pressure | Rain* | Wind** | Luminosity | Snow |
|---|---|---|---|---|---|---|---|
| 1788598061 | 18.33° C | 65% | 1005.5 hPa | 0 mm | - | 596 W/m² | - |
| 1788596825 | 17.78° C | 70% | 1005.3 hPa | 0 mm | - | 511 W/m² | - |
| 1788596211 | 17.78° C | 69% | 1005.3 hPa | 0 mm | - | 456 W/m² | - |
| 1788595602 | 17.22° C | 71% | 1005.2 hPa | 0 mm | - | 116 W/m² | - |
| 1788594361 | 16.67° C | 74% | 1005.1 hPa | 0 mm | - | 401 W/m² | - |
| 1788593750 | 16.67° C | 75% | 1005 hPa | 0 mm | - | 396 W/m² | - |
| 1788593137 | 16.67° C | 75% | 1004.8 hPa | 0 mm | - | 112 W/m² | - |
| 1788591900 | 16.11° C | 78% | 1004.8 hPa | 0 mm | - | 284 W/m² | - |
| 1788591286 | 16.11° C | 81% | 1004.8 hPa | 0 mm | - | 246 W/m² | - |
| 1788590677 | 16.11° C | 80% | 1004.7 hPa | 0 mm | - | 167 W/m² | - |
| 1788589451 | 16.11° C | 83% | 1004.6 hPa | 0 mm | - | 148 W/m² | - |
| 1788588836 | 15.56° C | 85% | 1004.5 hPa | 0 mm | - | 136 W/m² | - |
| 1788588227 | 15.56° C | 87% | 1004.5 hPa | 0 mm | - | 81 W/m² | - |
| 1788586986 | 15° C | 88% | 1004.2 hPa | 0 mm | - | 51 W/m² | - |
| 1788564836 | 15.56° C | 93% | 1000.9 hPa | 0.25 mm | - | 0 W/m² | - |
| 1788562383 | 15.56° C | 93% | 1000.1 hPa | 1.78 mm | - | 0 W/m² | - |
| 1788561762 | 15.56° C | 93% | 1000 hPa | 2.29 mm | - | 0 W/m² | - |
| 1788560526 | 15.56° C | 94% | 1000.2 hPa | 3.56 mm | - | 0 W/m² | - |
| 1788559911 | 15.56° C | 93% | 1000.1 hPa | 3.56 mm | - | 0 W/m² | - |
| 1788559301 | 15.56° C | 93% | 1000 hPa | 3.3 mm | - | 0 W/m² | - |
| 1788557451 | 15.56° C | 93% | 999.8 hPa | 3.56 mm | - | 0 W/m² | - |
| 1788555611 | 15.56° C | 90% | 999.4 hPa | 1.52 mm | - | 0 W/m² | - |
| 1788543375 | 25° C | 57% | 995.2 hPa | 0 mm | - | 2 W/m² | - |
| 1788542761 | 25° C | 57% | 995.3 hPa | 0 mm | - | 4 W/m² | - |
| 1788540911 | 25° C | 57% | 996.1 hPa | 0 mm | - | 7 W/m² | - |
* Rain latest hour (hover to see other rain measurements)
** Current wind speed in m/s (hover to see current wind gust speed)